sensor_id;sensor_type;location;lat;lon;timestamp;temperature;humidity
5697;DHT22;2873;50.966;7.210;2024-01-30T00:00:43;10.00;99.90
5697;DHT22;2873;50.966;7.210;2024-01-30T00:03:08;9.90;99.90
5697;DHT22;2873;50.966;7.210;2024-01-30T00:05:34;10.00;99.90
5697;DHT22;2873;50.966;7.210;2024-01-30T00:07:59;9.90;99.90
5697;DHT22;2873;50.966;7.210;2024-01-30T00:10:25;9.80;99.90
5697;DHT22;2873;50.966;7.210;2024-01-30T00:12:50;9.80;99.90
5697;DHT22;2873;50.966;7.210;2024-01-30T00:15:16;9.80;99.90
5697;DHT22;2873;50.966;7.210;2024-01-30T00:17:42;9.70;99.90
5697;DHT22;2873;50.966;7.210;2024-01-30T00:20:07;9.60;99.90
5697;DHT22;2873;50.966;7.210;2024-01-30T00:22:34;9.60;99.90
5697;DHT22;2873;50.966;7.210;2024-01-30T00:25:00;9.80;99.90
5697;DHT22;2873;50.966;7.210;2024-01-30T00:27:26;9.70;99.90
5697;DHT22;2873;50.966;7.210;2024-01-30T00:29:53;9.60;99.90
5697;DHT22;2873;50.966;7.210;2024-01-30T00:32:18;9.60;99.90
5697;DHT22;2873;50.966;7.210;2024-01-30T00:34:44;9.70;99.90
5697;DHT22;2873;50.966;7.210;2024-01-30T00:37:10;9.60;99.90
5697;DHT22;2873;50.966;7.210;2024-01-30T00:39:36;9.60;99.90
5697;DHT22;2873;50.966;7.210;2024-01-30T00:42:01;9.50;99.90
5697;DHT22;2873;50.966;7.210;2024-01-30T00:44:27;9.50;99.90
5697;DHT22;2873;50.966;7.210;2024-01-30T00:46:53;9.40;99.90
5697;DHT22;2873;50.966;7.210;2024-01-30T00:49:18;9.50;99.90
5697;DHT22;2873;50.966;7.210;2024-01-30T00:51:44;9.40;99.90
5697;DHT22;2873;50.966;7.210;2024-01-30T00:54:09;9.40;99.90
5697;DHT22;2873;50.966;7.210;2024-01-30T00:56:35;9.40;99.90
5697;DHT22;2873;50.966;7.210;2024-01-30T00:59:00;9.50;99.90
5697;DHT22;2873;50.966;7.210;2024-01-30T01:01:26;9.50;99.90
5697;DHT22;2873;50.966;7.210;2024-01-30T01:03:51;9.40;99.90
5697;DHT22;2873;50.966;7.210;2024-01-30T01:06:17;9.40;99.90
5697;DHT22;2873;50.966;7.210;2024-01-30T01:08:43;9.40;99.90
5697;DHT22;2873;50.966;7.210;2024-01-30T01:11:08;9.40;99.90
5697;DHT22;2873;50.966;7.210;2024-01-30T01:13:34;9.50;99.90
5697;DHT22;2873;50.966;7.210;2024-01-30T01:16:00;9.30;99.90
5697;DHT22;2873;50.966;7.210;2024-01-30T01:18:25;9.30;99.90
5697;DHT22;2873;50.966;7.210;2024-01-30T01:20:52;9.40;99.90
5697;DHT22;2873;50.966;7.210;2024-01-30T01:23:18;9.50;99.90
5697;DHT22;2873;50.966;7.210;2024-01-30T01:25:44;9.50;99.90
5697;DHT22;2873;50.966;7.210;2024-01-30T01:28:09;9.50;99.90
5697;DHT22;2873;50.966;7.210;2024-01-30T01:30:35;9.60;99.90
5697;DHT22;2873;50.966;7.210;2024-01-30T01:33:00;9.60;99.90
5697;DHT22;2873;50.966;7.210;2024-01-30T01:35:27;9.60;99.90
5697;DHT22;2873;50.966;7.210;2024-01-30T01:37:53;9.50;99.90
5697;DHT22;2873;50.966;7.210;2024-01-30T01:40:24;9.60;99.90
5697;DHT22;2873;50.966;7.210;2024-01-30T01:42:54;9.50;99.90
5697;DHT22;2873;50.966;7.210;2024-01-30T01:45:20;9.50;99.90
5697;DHT22;2873;50.966;7.210;2024-01-30T01:47:50;9.50;99.90
5697;DHT22;2873;50.966;7.210;2024-01-30T01:50:16;9.50;99.90
5697;DHT22;2873;50.966;7.210;2024-01-30T01:52:46;9.40;99.90
5697;DHT22;2873;50.966;7.210;2024-01-30T01:55:13;9.50;99.90
5697;DHT22;2873;50.966;7.210;2024-01-30T01:57:39;9.50;99.90
5697;DHT22;2873;50.966;7.210;2024-01-30T02:00:05;9.50;99.90
5697;DHT22;2873;50.966;7.210;2024-01-30T02:02:35;9.60;99.90
5697;DHT22;2873;50.966;7.210;2024-01-30T02:05:01;9.40;99.90
5697;DHT22;2873;50.966;7.210;2024-01-30T02:07:28;9.60;99.90
5697;DHT22;2873;50.966;7.210;2024-01-30T02:09:54;9.60;99.90
5697;DHT22;2873;50.966;7.210;2024-01-30T02:12:20;9.50;99.90
5697;DHT22;2873;50.966;7.210;2024-01-30T02:14:46;9.50;99.90
5697;DHT22;2873;50.966;7.210;2024-01-30T02:17:13;9.60;99.90
5697;DHT22;2873;50.966;7.210;2024-01-30T02:19:39;9.50;99.90
5697;DHT22;2873;50.966;7.210;2024-01-30T02:22:04;9.50;99.90
5697;DHT22;2873;50.966;7.210;2024-01-30T02:24:30;9.30;99.90
5697;DHT22;2873;50.966;7.210;2024-01-30T02:26:56;9.40;99.90
5697;DHT22;2873;50.966;7.210;2024-01-30T02:29:21;9.40;99.90
5697;DHT22;2873;50.966;7.210;2024-01-30T02:31:47;9.30;99.90
5697;DHT22;2873;50.966;7.210;2024-01-30T02:34:13;9.20;99.90
5697;DHT22;2873;50.966;7.210;2024-01-30T02:36:42;9.20;99.90
5697;DHT22;2873;50.966;7.210;2024-01-30T02:39:08;9.30;99.90
5697;DHT22;2873;50.966;7.210;2024-01-30T02:41:33;9.30;99.90
5697;DHT22;2873;50.966;7.210;2024-01-30T02:43:59;9.20;99.90
5697;DHT22;2873;50.966;7.210;2024-01-30T02:46:25;9.10;99.90
5697;DHT22;2873;50.966;7.210;2024-01-30T02:48:50;9.10;99.90
5697;DHT22;2873;50.966;7.210;2024-01-30T02:51:16;9.20;99.90
5697;DHT22;2873;50.966;7.210;2024-01-30T02:53:42;9.10;99.90
5697;DHT22;2873;50.966;7.210;2024-01-30T02:56:07;9.10;99.90
5697;DHT22;2873;50.966;7.210;2024-01-30T02:58:35;9.00;99.90
5697;DHT22;2873;50.966;7.210;2024-01-30T03:01:02;9.10;99.90
5697;DHT22;2873;50.966;7.210;2024-01-30T03:03:27;9.00;99.90
5697;DHT22;2873;50.966;7.210;2024-01-30T03:05:53;9.10;99.90
5697;DHT22;2873;50.966;7.210;2024-01-30T03:08:18;9.20;99.90
5697;DHT22;2873;50.966;7.210;2024-01-30T03:10:44;9.20;99.90
5697;DHT22;2873;50.966;7.210;2024-01-30T03:13:09;9.20;99.90
5697;DHT22;2873;50.966;7.210;2024-01-30T03:15:35;9.30;99.90
5697;DHT22;2873;50.966;7.210;2024-01-30T03:18:01;9.30;99.90
5697;DHT22;2873;50.966;7.210;2024-01-30T03:20:27;9.20;99.90
5697;DHT22;2873;50.966;7.210;2024-01-30T03:22:54;9.10;99.90
5697;DHT22;2873;50.966;7.210;2024-01-30T03:25:20;9.00;99.90
5697;DHT22;2873;50.966;7.210;2024-01-30T03:27:45;9.10;99.90
5697;DHT22;2873;50.966;7.210;2024-01-30T03:30:11;9.00;99.90
5697;DHT22;2873;50.966;7.210;2024-01-30T03:32:36;9.00;99.90
5697;DHT22;2873;50.966;7.210;2024-01-30T03:35:02;9.10;99.90
5697;DHT22;2873;50.966;7.210;2024-01-30T03:37:27;9.30;99.90
5697;DHT22;2873;50.966;7.210;2024-01-30T03:39:53;9.20;99.90
5697;DHT22;2873;50.966;7.210;2024-01-30T03:42:18;9.20;99.90
5697;DHT22;2873;50.966;7.210;2024-01-30T03:44:44;9.20;99.90
5697;DHT22;2873;50.966;7.210;2024-01-30T03:47:10;9.30;99.90
5697;DHT22;2873;50.966;7.210;2024-01-30T03:49:35;9.20;99.90
5697;DHT22;2873;50.966;7.210;2024-01-30T03:52:00;9.10;99.90
5697;DHT22;2873;50.966;7.210;2024-01-30T03:54:26;9.10;99.90
5697;DHT22;2873;50.966;7.210;2024-01-30T03:56:52;9.20;99.90
5697;DHT22;2873;50.966;7.210;2024-01-30T03:59:17;9.30;99.90
5697;DHT22;2873;50.966;7.210;2024-01-30T04:01:47;9.30;99.90
5697;DHT22;2873;50.966;7.210;2024-01-30T04:04:13;9.30;99.90
5697;DHT22;2873;50.966;7.210;2024-01-30T04:06:38;9.30;99.90
5697;DHT22;2873;50.966;7.210;2024-01-30T04:09:04;9.30;99.90
5697;DHT22;2873;50.966;7.210;2024-01-30T04:11:29;9.40;99.90
5697;DHT22;2873;50.966;7.210;2024-01-30T04:13:55;9.40;99.90
5697;DHT22;2873;50.966;7.210;2024-01-30T04:16:21;9.30;99.90
5697;DHT22;2873;50.966;7.210;2024-01-30T04:18:51;9.20;99.90
5697;DHT22;2873;50.966;7.210;2024-01-30T04:21:17;9.20;99.90
5697;DHT22;2873;50.966;7.210;2024-01-30T04:23:43;9.30;99.90
5697;DHT22;2873;50.966;7.210;2024-01-30T04:26:09;9.30;99.90
5697;DHT22;2873;50.966;7.210;2024-01-30T04:28:34;9.20;99.90
5697;DHT22;2873;50.966;7.210;2024-01-30T04:31:00;9.40;99.90
5697;DHT22;2873;50.966;7.210;2024-01-30T04:33:25;9.50;99.90
5697;DHT22;2873;50.966;7.210;2024-01-30T04:35:51;9.50;99.90
5697;DHT22;2873;50.966;7.210;2024-01-30T04:38:17;9.60;99.90
5697;DHT22;2873;50.966;7.210;2024-01-30T04:40:43;9.60;99.90
5697;DHT22;2873;50.966;7.210;2024-01-30T04:43:08;9.30;99.90
5697;DHT22;2873;50.966;7.210;2024-01-30T04:45:34;9.30;99.90
5697;DHT22;2873;50.966;7.210;2024-01-30T04:47:59;9.30;99.90
5697;DHT22;2873;50.966;7.210;2024-01-30T04:50:25;9.40;99.90
5697;DHT22;2873;50.966;7.210;2024-01-30T04:52:52;9.40;99.90
5697;DHT22;2873;50.966;7.210;2024-01-30T04:55:17;9.30;99.90
5697;DHT22;2873;50.966;7.210;2024-01-30T04:57:43;9.40;99.90
5697;DHT22;2873;50.966;7.210;2024-01-30T05:00:09;9.50;99.90
5697;DHT22;2873;50.966;7.210;2024-01-30T05:02:35;9.40;99.90
5697;DHT22;2873;50.966;7.210;2024-01-30T05:05:00;9.30;99.90
5697;DHT22;2873;50.966;7.210;2024-01-30T05:07:26;9.40;99.90
5697;DHT22;2873;50.966;7.210;2024-01-30T05:09:51;9.20;99.90
5697;DHT22;2873;50.966;7.210;2024-01-30T05:12:17;9.20;99.90
5697;DHT22;2873;50.966;7.210;2024-01-30T05:14:43;9.10;99.90
5697;DHT22;2873;50.966;7.210;2024-01-30T05:17:08;9.30;99.90
5697;DHT22;2873;50.966;7.210;2024-01-30T05:19:35;9.30;99.90
5697;DHT22;2873;50.966;7.210;2024-01-30T05:22:01;9.40;99.90
5697;DHT22;2873;50.966;7.210;2024-01-30T05:24:26;9.40;99.90
5697;DHT22;2873;50.966;7.210;2024-01-30T05:26:52;9.50;99.90
5697;DHT22;2873;50.966;7.210;2024-01-30T05:29:18;9.40;99.90
5697;DHT22;2873;50.966;7.210;2024-01-30T05:31:43;9.30;99.90
5697;DHT22;2873;50.966;7.210;2024-01-30T05:34:09;9.30;99.90
5697;DHT22;2873;50.966;7.210;2024-01-30T05:36:35;9.10;99.90
5697;DHT22;2873;50.966;7.210;2024-01-30T05:39:01;9.00;99.90
5697;DHT22;2873;50.966;7.210;2024-01-30T05:41:26;8.90;99.90
5697;DHT22;2873;50.966;7.210;2024-01-30T05:43:52;8.80;99.90
5697;DHT22;2873;50.966;7.210;2024-01-30T05:46:17;8.70;99.90
5697;DHT22;2873;50.966;7.210;2024-01-30T05:48:43;8.80;99.90
5697;DHT22;2873;50.966;7.210;2024-01-30T05:51:08;8.70;99.90
5697;DHT22;2873;50.966;7.210;2024-01-30T05:53:34;8.80;99.90
5697;DHT22;2873;50.966;7.210;2024-01-30T05:56:04;8.90;99.90
5697;DHT22;2873;50.966;7.210;2024-01-30T05:58:29;9.00;99.90
5697;DHT22;2873;50.966;7.210;2024-01-30T06:00:56;8.90;99.90
5697;DHT22;2873;50.966;7.210;2024-01-30T06:03:22;8.90;99.90
5697;DHT22;2873;50.966;7.210;2024-01-30T06:05:48;9.00;99.90
5697;DHT22;2873;50.966;7.210;2024-01-30T06:08:14;9.00;99.90
5697;DHT22;2873;50.966;7.210;2024-01-30T06:10:39;9.00;99.90
5697;DHT22;2873;50.966;7.210;2024-01-30T06:13:05;9.00;99.90
5697;DHT22;2873;50.966;7.210;2024-01-30T06:15:31;9.10;99.90
5697;DHT22;2873;50.966;7.210;2024-01-30T06:17:58;8.90;99.90
5697;DHT22;2873;50.966;7.210;2024-01-30T06:20:24;8.90;99.90
5697;DHT22;2873;50.966;7.210;2024-01-30T06:22:49;8.90;99.90
5697;DHT22;2873;50.966;7.210;2024-01-30T06:25:15;9.00;99.90
5697;DHT22;2873;50.966;7.210;2024-01-30T06:27:42;9.10;99.90
5697;DHT22;2873;50.966;7.210;2024-01-30T06:30:08;9.10;99.90
5697;DHT22;2873;50.966;7.210;2024-01-30T06:32:34;9.10;99.90
5697;DHT22;2873;50.966;7.210;2024-01-30T06:35:01;8.90;99.90
5697;DHT22;2873;50.966;7.210;2024-01-30T06:37:26;8.90;99.90
5697;DHT22;2873;50.966;7.210;2024-01-30T06:39:52;8.90;99.90
5697;DHT22;2873;50.966;7.210;2024-01-30T06:42:18;8.90;99.90
5697;DHT22;2873;50.966;7.210;2024-01-30T06:44:44;8.80;99.90
5697;DHT22;2873;50.966;7.210;2024-01-30T06:47:09;8.90;99.90
5697;DHT22;2873;50.966;7.210;2024-01-30T06:49:35;8.90;99.90
5697;DHT22;2873;50.966;7.210;2024-01-30T06:52:06;8.90;99.90
5697;DHT22;2873;50.966;7.210;2024-01-30T06:54:32;8.80;99.90
5697;DHT22;2873;50.966;7.210;2024-01-30T06:56:58;9.00;99.90
5697;DHT22;2873;50.966;7.210;2024-01-30T06:59:24;8.80;99.90
5697;DHT22;2873;50.966;7.210;2024-01-30T07:01:50;8.80;99.90
5697;DHT22;2873;50.966;7.210;2024-01-30T07:04:15;8.80;99.90
5697;DHT22;2873;50.966;7.210;2024-01-30T07:06:41;8.80;99.90
5697;DHT22;2873;50.966;7.210;2024-01-30T07:09:08;8.90;99.90
5697;DHT22;2873;50.966;7.210;2024-01-30T07:11:34;8.80;99.90
5697;DHT22;2873;50.966;7.210;2024-01-30T07:13:59;8.90;99.90
5697;DHT22;2873;50.966;7.210;2024-01-30T07:16:25;8.90;99.90
5697;DHT22;2873;50.966;7.210;2024-01-30T07:18:51;8.90;99.90
5697;DHT22;2873;50.966;7.210;2024-01-30T07:21:16;8.90;99.90
5697;DHT22;2873;50.966;7.210;2024-01-30T07:23:42;9.10;99.90
5697;DHT22;2873;50.966;7.210;2024-01-30T07:26:08;9.00;99.90
5697;DHT22;2873;50.966;7.210;2024-01-30T07:28:35;9.00;99.90
5697;DHT22;2873;50.966;7.210;2024-01-30T07:31:01;9.10;99.90
5697;DHT22;2873;50.966;7.210;2024-01-30T07:33:27;9.30;99.90
5697;DHT22;2873;50.966;7.210;2024-01-30T07:35:53;9.40;99.90
5697;DHT22;2873;50.966;7.210;2024-01-30T07:38:19;9.30;99.90
5697;DHT22;2873;50.966;7.210;2024-01-30T07:40:45;9.20;99.90
5697;DHT22;2873;50.966;7.210;2024-01-30T07:43:10;9.10;99.90
5697;DHT22;2873;50.966;7.210;2024-01-30T07:45:36;9.20;99.90
5697;DHT22;2873;50.966;7.210;2024-01-30T07:48:05;9.20;99.90
5697;DHT22;2873;50.966;7.210;2024-01-30T07:50:30;9.20;99.90
5697;DHT22;2873;50.966;7.210;2024-01-30T07:52:56;9.30;99.90
5697;DHT22;2873;50.966;7.210;2024-01-30T07:55:22;9.40;99.90
5697;DHT22;2873;50.966;7.210;2024-01-30T07:57:54;9.20;99.90
5697;DHT22;2873;50.966;7.210;2024-01-30T08:00:21;9.40;99.90
5697;DHT22;2873;50.966;7.210;2024-01-30T08:02:47;9.30;99.90
5697;DHT22;2873;50.966;7.210;2024-01-30T08:05:13;9.20;99.90
5697;DHT22;2873;50.966;7.210;2024-01-30T08:07:43;9.20;99.90
5697;DHT22;2873;50.966;7.210;2024-01-30T08:10:11;9.20;99.90
5697;DHT22;2873;50.966;7.210;2024-01-30T08:12:36;9.20;99.90
5697;DHT22;2873;50.966;7.210;2024-01-30T08:15:02;9.20;99.90
5697;DHT22;2873;50.966;7.210;2024-01-30T08:17:28;9.20;99.90
5697;DHT22;2873;50.966;7.210;2024-01-30T08:19:54;9.20;99.90
5697;DHT22;2873;50.966;7.210;2024-01-30T08:22:19;9.20;99.90
5697;DHT22;2873;50.966;7.210;2024-01-30T08:24:45;9.30;99.90
5697;DHT22;2873;50.966;7.210;2024-01-30T08:27:10;9.40;99.90
5697;DHT22;2873;50.966;7.210;2024-01-30T08:29:37;9.50;99.90
5697;DHT22;2873;50.966;7.210;2024-01-30T08:32:04;9.60;99.90
5697;DHT22;2873;50.966;7.210;2024-01-30T08:34:30;9.50;99.90
5697;DHT22;2873;50.966;7.210;2024-01-30T08:36:56;9.50;99.90
5697;DHT22;2873;50.966;7.210;2024-01-30T08:39:21;9.40;99.90
5697;DHT22;2873;50.966;7.210;2024-01-30T08:41:47;9.50;99.90
5697;DHT22;2873;50.966;7.210;2024-01-30T08:44:12;9.60;99.90
5697;DHT22;2873;50.966;7.210;2024-01-30T08:46:38;9.50;99.90
5697;DHT22;2873;50.966;7.210;2024-01-30T08:49:04;9.70;99.90
5697;DHT22;2873;50.966;7.210;2024-01-30T08:51:33;9.60;99.90
5697;DHT22;2873;50.966;7.210;2024-01-30T08:53:59;9.60;99.90
5697;DHT22;2873;50.966;7.210;2024-01-30T08:56:25;9.60;99.90
5697;DHT22;2873;50.966;7.210;2024-01-30T08:58:51;9.90;99.90
5697;DHT22;2873;50.966;7.210;2024-01-30T09:01:16;9.90;99.90
5697;DHT22;2873;50.966;7.210;2024-01-30T09:03:42;10.00;99.90
5697;DHT22;2873;50.966;7.210;2024-01-30T09:06:11;10.10;99.90
5697;DHT22;2873;50.966;7.210;2024-01-30T09:08:37;10.10;99.90
5697;DHT22;2873;50.966;7.210;2024-01-30T09:11:13;10.20;99.90
5697;DHT22;2873;50.966;7.210;2024-01-30T09:13:39;10.20;99.90
5697;DHT22;2873;50.966;7.210;2024-01-30T09:16:05;10.20;99.90
5697;DHT22;2873;50.966;7.210;2024-01-30T09:18:31;10.20;99.90
5697;DHT22;2873;50.966;7.210;2024-01-30T09:20:57;10.20;99.90
5697;DHT22;2873;50.966;7.210;2024-01-30T09:23:22;10.30;99.90
5697;DHT22;2873;50.966;7.210;2024-01-30T09:25:48;10.40;99.90
5697;DHT22;2873;50.966;7.210;2024-01-30T09:28:14;10.30;99.90
5697;DHT22;2873;50.966;7.210;2024-01-30T09:30:39;10.40;99.90
5697;DHT22;2873;50.966;7.210;2024-01-30T09:33:05;10.50;99.90
5697;DHT22;2873;50.966;7.210;2024-01-30T09:35:31;10.50;99.90
5697;DHT22;2873;50.966;7.210;2024-01-30T09:37:57;10.70;99.90
5697;DHT22;2873;50.966;7.210;2024-01-30T09:40:25;10.70;99.90
5697;DHT22;2873;50.966;7.210;2024-01-30T09:42:51;10.80;99.90
5697;DHT22;2873;50.966;7.210;2024-01-30T09:45:24;10.80;99.90
5697;DHT22;2873;50.966;7.210;2024-01-30T09:47:49;10.80;99.90
5697;DHT22;2873;50.966;7.210;2024-01-30T09:50:16;11.00;99.90
5697;DHT22;2873;50.966;7.210;2024-01-30T09:52:43;11.10;99.90
5697;DHT22;2873;50.966;7.210;2024-01-30T09:55:09;11.40;99.90
5697;DHT22;2873;50.966;7.210;2024-01-30T09:57:35;11.50;99.90
5697;DHT22;2873;50.966;7.210;2024-01-30T10:00:05;11.60;99.90
5697;DHT22;2873;50.966;7.210;2024-01-30T10:02:34;11.60;99.90
5697;DHT22;2873;50.966;7.210;2024-01-30T10:05:01;11.50;99.90
5697;DHT22;2873;50.966;7.210;2024-01-30T10:07:27;11.60;99.90
5697;DHT22;2873;50.966;7.210;2024-01-30T10:09:53;11.60;99.90
5697;DHT22;2873;50.966;7.210;2024-01-30T10:12:20;11.60;99.90
5697;DHT22;2873;50.966;7.210;2024-01-30T10:14:46;11.60;99.90
5697;DHT22;2873;50.966;7.210;2024-01-30T10:17:12;11.70;99.90
5697;DHT22;2873;50.966;7.210;2024-01-30T10:19:39;11.60;99.90
5697;DHT22;2873;50.966;7.210;2024-01-30T10:22:05;11.60;99.90
5697;DHT22;2873;50.966;7.210;2024-01-30T10:24:31;11.60;99.90
5697;DHT22;2873;50.966;7.210;2024-01-30T10:26:56;11.80;99.90
5697;DHT22;2873;50.966;7.210;2024-01-30T10:29:22;12.00;99.90
5697;DHT22;2873;50.966;7.210;2024-01-30T10:32:17;12.20;99.90
5697;DHT22;2873;50.966;7.210;2024-01-30T10:34:43;12.40;99.90
5697;DHT22;2873;50.966;7.210;2024-01-30T10:37:12;12.30;99.90
5697;DHT22;2873;50.966;7.210;2024-01-30T10:39:41;12.30;99.90
5697;DHT22;2873;50.966;7.210;2024-01-30T10:42:11;12.50;99.90
5697;DHT22;2873;50.966;7.210;2024-01-30T10:44:47;12.60;99.90
5697;DHT22;2873;50.966;7.210;2024-01-30T10:47:17;12.60;99.90
5697;DHT22;2873;50.966;7.210;2024-01-30T10:49:43;12.70;99.90
5697;DHT22;2873;50.966;7.210;2024-01-30T10:52:12;12.60;99.90
5697;DHT22;2873;50.966;7.210;2024-01-30T10:54:40;12.60;99.90
5697;DHT22;2873;50.966;7.210;2024-01-30T10:57:07;12.50;99.90
5697;DHT22;2873;50.966;7.210;2024-01-30T10:59:34;12.40;99.90
5697;DHT22;2873;50.966;7.210;2024-01-30T11:02:00;12.40;99.90
5697;DHT22;2873;50.966;7.210;2024-01-30T11:04:27;12.30;99.90
5697;DHT22;2873;50.966;7.210;2024-01-30T11:06:52;12.30;99.90
5697;DHT22;2873;50.966;7.210;2024-01-30T11:09:19;12.40;99.90
5697;DHT22;2873;50.966;7.210;2024-01-30T11:11:55;12.30;99.90
5697;DHT22;2873;50.966;7.210;2024-01-30T11:14:25;12.50;99.90
5697;DHT22;2873;50.966;7.210;2024-01-30T11:16:57;12.50;99.90
5697;DHT22;2873;50.966;7.210;2024-01-30T11:19:27;12.40;99.90
5697;DHT22;2873;50.966;7.210;2024-01-30T11:21:56;12.40;99.90
5697;DHT22;2873;50.966;7.210;2024-01-30T11:24:24;12.50;99.90
5697;DHT22;2873;50.966;7.210;2024-01-30T11:26:55;12.50;99.90
5697;DHT22;2873;50.966;7.210;2024-01-30T11:29:24;12.50;99.90
5697;DHT22;2873;50.966;7.210;2024-01-30T11:31:57;12.60;99.90
5697;DHT22;2873;50.966;7.210;2024-01-30T11:34:23;12.50;99.90
5697;DHT22;2873;50.966;7.210;2024-01-30T11:36:56;12.40;99.90
5697;DHT22;2873;50.966;7.210;2024-01-30T11:39:25;12.60;99.90
5697;DHT22;2873;50.966;7.210;2024-01-30T11:41:55;12.50;99.90
5697;DHT22;2873;50.966;7.210;2024-01-30T11:44:21;12.60;99.90
5697;DHT22;2873;50.966;7.210;2024-01-30T11:46:48;12.70;99.90
5697;DHT22;2873;50.966;7.210;2024-01-30T11:49:14;12.60;99.90
5697;DHT22;2873;50.966;7.210;2024-01-30T11:51:39;12.60;99.90
5697;DHT22;2873;50.966;7.210;2024-01-30T11:54:05;12.70;99.90
5697;DHT22;2873;50.966;7.210;2024-01-30T11:56:31;12.70;99.90
5697;DHT22;2873;50.966;7.210;2024-01-30T11:58:56;12.70;99.90
5697;DHT22;2873;50.966;7.210;2024-01-30T12:01:22;12.70;99.90
5697;DHT22;2873;50.966;7.210;2024-01-30T12:03:51;12.80;99.90
5697;DHT22;2873;50.966;7.210;2024-01-30T12:06:17;12.90;99.90
5697;DHT22;2873;50.966;7.210;2024-01-30T12:08:42;12.90;99.90
5697;DHT22;2873;50.966;7.210;2024-01-30T12:11:08;13.00;99.90
5697;DHT22;2873;50.966;7.210;2024-01-30T12:13:34;13.00;99.90
5697;DHT22;2873;50.966;7.210;2024-01-30T12:16:00;13.10;99.90
5697;DHT22;2873;50.966;7.210;2024-01-30T12:18:26;13.10;99.90
5697;DHT22;2873;50.966;7.210;2024-01-30T12:20:59;13.30;99.90
5697;DHT22;2873;50.966;7.210;2024-01-30T12:23:26;13.30;99.90
5697;DHT22;2873;50.966;7.210;2024-01-30T12:25:52;13.40;99.90
5697;DHT22;2873;50.966;7.210;2024-01-30T12:28:18;13.50;99.90
5697;DHT22;2873;50.966;7.210;2024-01-30T12:30:43;13.50;99.90
5697;DHT22;2873;50.966;7.210;2024-01-30T12:33:09;13.50;99.90
5697;DHT22;2873;50.966;7.210;2024-01-30T12:35:35;13.70;99.90
5697;DHT22;2873;50.966;7.210;2024-01-30T12:38:02;13.80;99.90
5697;DHT22;2873;50.966;7.210;2024-01-30T12:40:27;13.80;99.90
5697;DHT22;2873;50.966;7.210;2024-01-30T12:42:54;13.90;99.90
5697;DHT22;2873;50.966;7.210;2024-01-30T12:45:19;13.80;99.90
5697;DHT22;2873;50.966;7.210;2024-01-30T12:47:48;13.90;99.90
5697;DHT22;2873;50.966;7.210;2024-01-30T12:50:14;14.00;99.90
5697;DHT22;2873;50.966;7.210;2024-01-30T12:52:42;14.00;99.90
5697;DHT22;2873;50.966;7.210;2024-01-30T12:55:07;13.90;99.90
5697;DHT22;2873;50.966;7.210;2024-01-30T12:57:33;14.00;99.90
5697;DHT22;2873;50.966;7.210;2024-01-30T12:59:58;13.90;99.90
5697;DHT22;2873;50.966;7.210;2024-01-30T13:02:24;13.90;99.90
5697;DHT22;2873;50.966;7.210;2024-01-30T13:04:50;13.70;99.90
5697;DHT22;2873;50.966;7.210;2024-01-30T13:07:16;13.80;99.90
5697;DHT22;2873;50.966;7.210;2024-01-30T13:09:42;13.60;99.90
5697;DHT22;2873;50.966;7.210;2024-01-30T13:12:07;13.60;99.90
5697;DHT22;2873;50.966;7.210;2024-01-30T13:14:33;13.80;99.90
5697;DHT22;2873;50.966;7.210;2024-01-30T13:16:58;13.80;99.90
5697;DHT22;2873;50.966;7.210;2024-01-30T13:19:24;13.90;99.90
5697;DHT22;2873;50.966;7.210;2024-01-30T13:21:49;14.00;99.90
5697;DHT22;2873;50.966;7.210;2024-01-30T13:24:15;14.20;99.90
5697;DHT22;2873;50.966;7.210;2024-01-30T13:26:42;14.30;99.90
5697;DHT22;2873;50.966;7.210;2024-01-30T13:29:08;14.40;99.90
5697;DHT22;2873;50.966;7.210;2024-01-30T13:31:33;14.60;99.90
5697;DHT22;2873;50.966;7.210;2024-01-30T13:34:00;14.50;99.90
5697;DHT22;2873;50.966;7.210;2024-01-30T13:36:25;14.60;99.90
5697;DHT22;2873;50.966;7.210;2024-01-30T13:38:51;14.50;99.90
5697;DHT22;2873;50.966;7.210;2024-01-30T13:41:16;14.40;99.90
5697;DHT22;2873;50.966;7.210;2024-01-30T13:43:43;14.50;99.90
5697;DHT22;2873;50.966;7.210;2024-01-30T13:46:09;14.30;99.90
5697;DHT22;2873;50.966;7.210;2024-01-30T13:48:35;14.20;99.90
5697;DHT22;2873;50.966;7.210;2024-01-30T13:51:01;14.20;99.90
5697;DHT22;2873;50.966;7.210;2024-01-30T13:53:26;14.20;99.90
5697;DHT22;2873;50.966;7.210;2024-01-30T13:55:52;14.30;99.90
5697;DHT22;2873;50.966;7.210;2024-01-30T13:58:17;14.30;99.90
5697;DHT22;2873;50.966;7.210;2024-01-30T14:00:43;14.30;99.90
5697;DHT22;2873;50.966;7.210;2024-01-30T14:03:09;14.20;99.90
5697;DHT22;2873;50.966;7.210;2024-01-30T14:05:34;14.20;99.90
5697;DHT22;2873;50.966;7.210;2024-01-30T14:08:00;14.20;99.90
5697;DHT22;2873;50.966;7.210;2024-01-30T14:10:26;14.10;99.90
5697;DHT22;2873;50.966;7.210;2024-01-30T14:12:52;14.10;99.90
5697;DHT22;2873;50.966;7.210;2024-01-30T14:15:18;14.10;99.90
5697;DHT22;2873;50.966;7.210;2024-01-30T14:17:44;14.00;99.90
5697;DHT22;2873;50.966;7.210;2024-01-30T14:20:10;14.10;99.90
5697;DHT22;2873;50.966;7.210;2024-01-30T14:22:36;14.00;99.90
5697;DHT22;2873;50.966;7.210;2024-01-30T14:25:02;13.90;99.90
5697;DHT22;2873;50.966;7.210;2024-01-30T14:27:31;13.60;99.90
5697;DHT22;2873;50.966;7.210;2024-01-30T14:29:57;13.90;99.90
5697;DHT22;2873;50.966;7.210;2024-01-30T14:32:23;13.90;99.90
5697;DHT22;2873;50.966;7.210;2024-01-30T14:34:52;14.00;99.90
5697;DHT22;2873;50.966;7.210;2024-01-30T14:37:19;13.90;99.90
5697;DHT22;2873;50.966;7.210;2024-01-30T14:39:44;13.90;99.90
5697;DHT22;2873;50.966;7.210;2024-01-30T14:42:10;14.00;99.90
5697;DHT22;2873;50.966;7.210;2024-01-30T14:44:36;13.70;99.90
5697;DHT22;2873;50.966;7.210;2024-01-30T14:47:01;14.00;99.90
5697;DHT22;2873;50.966;7.210;2024-01-30T14:49:27;14.00;99.90
5697;DHT22;2873;50.966;7.210;2024-01-30T14:51:53;14.00;99.90
5697;DHT22;2873;50.966;7.210;2024-01-30T14:54:19;13.30;99.90
5697;DHT22;2873;50.966;7.210;2024-01-30T14:56:45;13.20;99.90
5697;DHT22;2873;50.966;7.210;2024-01-30T14:59:13;13.40;99.90
5697;DHT22;2873;50.966;7.210;2024-01-30T15:01:38;13.10;99.90
5697;DHT22;2873;50.966;7.210;2024-01-30T15:04:04;13.20;99.90
5697;DHT22;2873;50.966;7.210;2024-01-30T15:06:30;13.20;99.90
5697;DHT22;2873;50.966;7.210;2024-01-30T15:08:55;13.30;99.90
5697;DHT22;2873;50.966;7.210;2024-01-30T15:11:21;13.30;99.90
5697;DHT22;2873;50.966;7.210;2024-01-30T15:13:46;13.10;99.90
5697;DHT22;2873;50.966;7.210;2024-01-30T15:16:12;13.10;99.90
5697;DHT22;2873;50.966;7.210;2024-01-30T15:18:38;12.90;99.90
5697;DHT22;2873;50.966;7.210;2024-01-30T15:21:03;13.10;99.90
5697;DHT22;2873;50.966;7.210;2024-01-30T15:23:29;13.20;99.90
5697;DHT22;2873;50.966;7.210;2024-01-30T15:25:54;13.20;99.90
5697;DHT22;2873;50.966;7.210;2024-01-30T15:28:35;13.10;99.90
5697;DHT22;2873;50.966;7.210;2024-01-30T15:31:04;13.20;99.90
5697;DHT22;2873;50.966;7.210;2024-01-30T15:33:30;13.00;99.90
5697;DHT22;2873;50.966;7.210;2024-01-30T15:35:57;13.00;99.90
5697;DHT22;2873;50.966;7.210;2024-01-30T15:38:23;13.10;99.90
5697;DHT22;2873;50.966;7.210;2024-01-30T15:40:48;12.90;99.90
5697;DHT22;2873;50.966;7.210;2024-01-30T15:43:14;12.80;99.90
5697;DHT22;2873;50.966;7.210;2024-01-30T15:45:39;12.90;99.90
5697;DHT22;2873;50.966;7.210;2024-01-30T15:48:05;12.90;99.90
5697;DHT22;2873;50.966;7.210;2024-01-30T15:50:31;12.60;99.90
5697;DHT22;2873;50.966;7.210;2024-01-30T15:52:57;12.90;99.90
5697;DHT22;2873;50.966;7.210;2024-01-30T15:55:22;12.70;99.90
5697;DHT22;2873;50.966;7.210;2024-01-30T15:57:48;12.80;99.90
5697;DHT22;2873;50.966;7.210;2024-01-30T16:00:14;13.00;99.90
5697;DHT22;2873;50.966;7.210;2024-01-30T16:02:40;12.80;99.90